Roatan, Honduras
Current Conditions -  °F | °C
As of 6:00 PM on Saturday 25 Oct 2014 (Local Time) from MHRO Reporting Station
Scattered Clouds Scattered Clouds  
Wind Chill: 81°   Ceiling: Unl
Heat Index: 85°   Visibility: 6mi
Dew Point: 72°   Wind: 12mph
Humidity: 74%   Direction: 310°NW
Pressure: 29.91"   Gusts: NA
Location:  16.33°N, 86.52°W
Report Text: MHRO 260000Z 31010KT 9999 SCT020 SCT080 27/22 Q1013 A2992 NOSIG
Loading
Personal Weather Stations






























Interactive Weather Map New forecast layout! Learn more

10-Day Weather Forecast

Advertisements
Track Severe Weather on mobile